Time;durP1;ratioP1;P1;durP2;ratioP2;P2;SDS_P1;SDS_P2;PMS_P1;PMS_P2;Temp;Humidity;BMP_temperature;BMP_pressure;BME280_temperature;BME280_humidity;BME280_pressure;Samples;Min_cycle;Max_cycle;Signal;HPM_P1;HPM_P2
2023/01/15 00:01:46;;;;;;;0.32;0.25;;;;;;;9.20;96.93;96054.38;4944465;28;20525;-62
2023/01/15 00:04:13;;;;;;;1.38;0.30;;;;;;;9.23;96.71;96043.03;4956236;28;20538;-62
2023/01/15 00:06:41;;;;;;;0.30;0.15;;;;;;;9.25;96.75;96050.84;4954461;28;20038;-62
2023/01/15 00:09:13;;;;;;;0.10;0.10;;;;;;;9.32;96.07;96035.16;4954252;28;20328;-62
2023/01/15 00:11:39;;;;;;;;;;;;;;;9.20;97.06;96038.19;4958800;28;20130;-62
2023/01/15 00:14:06;;;;;;;0.20;0.20;;;;;;;9.24;96.54;96030.31;4960330;28;19922;-62
2023/01/15 00:16:32;;;;;;;1.42;0.32;;;;;;;9.27;96.66;96018.16;4959874;28;20039;-61
2023/01/15 00:19:00;;;;;;;0.47;0.22;;;;;;;9.31;96.01;96016.53;4955474;28;20047;-63
2023/01/15 00:21:27;;;;;;;1.23;0.30;;;;;;;9.36;95.67;96014.59;4957406;28;20441;-62
2023/01/15 00:29:26;;;;;;;0.57;0.20;;;;;;;9.43;94.79;96000.78;4963392;28;21582;-62
2023/01/15 00:31:54;;;;;;;1.38;0.22;;;;;;;9.43;94.49;96000.00;4965699;28;20062;-62
2023/01/15 00:34:21;;;;;;;1.05;0.40;;;;;;;9.47;94.10;96004.56;4967673;28;20043;-62
2023/01/15 00:36:49;;;;;;;0.20;0.20;;;;;;;9.43;94.64;95992.69;4959634;28;20110;-62
2023/01/15 00:39:15;;;;;;;0.52;0.20;;;;;;;9.44;94.41;95996.22;4967762;28;20038;-60
2023/01/15 00:41:42;;;;;;;0.75;0.30;;;;;;;9.44;94.36;95988.88;4963638;28;20098;-62
2023/01/15 00:44:08;;;;;;;1.23;0.30;;;;;;;9.42;94.43;95992.97;4958855;28;20407;-62
2023/01/15 00:46:36;;;;;;;1.05;0.30;;;;;;;9.52;93.40;95987.53;4960412;28;20050;-62
2023/01/15 00:49:04;;;;;;;0.95;0.30;;;;;;;9.53;93.62;95988.31;4953497;28;20051;-62
2023/01/15 00:51:31;;;;;;;0.98;0.30;;;;;;;9.42;94.59;95979.44;4963623;28;20054;-62
2023/01/15 00:53:58;;;;;;;0.85;0.30;;;;;;;9.42;94.77;95977.56;4954342;28;20673;-62
2023/01/15 00:56:25;;;;;;;0.95;0.38;;;;;;;9.41;94.89;95956.22;4964293;28;20040;-62
2023/01/15 00:58:51;;;;;;;0.45;0.20;;;;;;;9.41;94.66;95962.47;4962045;28;20133;-61
2023/01/15 01:01:18;;;;;;;0.25;0.25;;;;;;;9.47;94.35;95963.25;4975726;28;20043;-62
2023/01/15 01:03:47;;;;;;;1.60;0.30;;;;;;;9.49;93.85;95956.47;4960541;28;20693;-62
2023/01/15 01:06:15;;;;;;;1.15;0.30;;;;;;;9.46;93.68;95970.53;4974852;28;20494;-62
2023/01/15 01:08:44;;;;;;;0.73;0.32;;;;;;;9.53;93.38;95972.91;4960455;28;20040;-62
2023/01/15 01:11:14;;;;;;;0.70;0.30;;;;;;;9.58;92.85;95959.38;4959274;28;20054;-62
2023/01/15 01:13:42;;;;;;;0.50;0.20;;;;;;;9.59;92.64;95950.16;4964575;28;20085;-62
2023/01/15 01:16:34;;;;;;;0.30;0.20;;;;;;;9.66;92.22;95957.94;4959114;28;20047;-63
2023/01/15 01:19:09;;;;;;;0.63;0.40;;;;;;;9.67;92.16;95958.78;4957976;28;20061;-62
2023/01/15 01:21:37;;;;;;;0.60;0.20;;;;;;;9.75;91.08;95956.28;4958108;28;20043;-62
2023/01/15 01:24:06;;;;;;;0.28;0.17;;;;;;;9.80;90.94;95950.03;4959419;28;20101;-62
2023/01/15 01:26:33;;;;;;;0.20;0.20;;;;;;;9.86;90.47;95958.91;4958003;28;20083;-62
2023/01/15 01:29:00;;;;;;;0.20;0.17;;;;;;;9.89;90.49;95952.94;4957522;28;20041;-62
2023/01/15 01:31:26;;;;;;;4.47;0.35;;;;;;;9.83;90.93;95937.84;4954754;28;20109;-62
2023/01/15 01:33:56;;;;;;;0.30;0.20;;;;;;;9.78;91.27;95954.09;4955209;28;20042;-62
2023/01/15 01:36:32;;;;;;;0.35;0.10;;;;;;;9.76;91.58;95943.56;4960569;28;20518;-63
2023/01/15 01:39:00;;;;;;;0.30;0.25;;;;;;;9.79;91.58;95939.50;4964944;28;20077;-63
2023/01/15 01:41:27;;;;;;;0.20;0.20;;;;;;;9.72;91.87;95937.09;4951524;28;20047;-62
2023/01/15 01:44:03;;;;;;;0.60;0.15;;;;;;;9.76;92.18;95936.28;4960886;28;20085;-62
2023/01/15 01:46:33;;;;;;;0.93;0.25;;;;;;;9.77;92.20;95931.69;4959309;28;20098;-62
2023/01/15 01:49:10;;;;;;;0.28;0.20;;;;;;;9.73;92.83;95933.34;4955321;28;20046;-62
2023/01/15 01:51:42;;;;;;;0.40;0.40;;;;;;;9.75;92.73;95915.75;4955763;28;20063;-62
2023/01/15 01:54:12;;;;;;;0.20;0.20;;;;;;;9.71;93.29;95930.09;4954121;28;20051;-62
2023/01/15 01:56:39;;;;;;;0.28;0.10;;;;;;;9.74;92.99;95918.72;4953614;28;20059;-62
2023/01/15 01:59:07;;;;;;;0.20;0.20;;;;;;;9.72;93.27;95918.19;4959618;28;20062;-63
2023/01/15 02:01:34;;;;;;;0.20;0.10;;;;;;;9.78;93.09;95921.66;4957402;28;20061;-62
2023/01/15 02:04:05;;;;;;;0.55;0.20;;;;;;;9.75;94.05;95912.22;4958782;28;20047;-62
2023/01/15 02:06:31;;;;;;;0.28;0.10;;;;;;;9.67;94.69;95905.53;4958301;28;20051;-63
2023/01/15 02:08:58;;;;;;;0.43;0.20;;;;;;;9.65;95.09;95909.63;4961233;28;20054;-63
2023/01/15 02:11:25;;;;;;;1.35;0.20;;;;;;;9.68;95.26;95903.63;4955636;28;20534;-62
2023/01/15 02:13:56;;;;;;;0.20;0.20;;;;;;;9.63;95.77;95902.56;4956863;28;20451;-62
2023/01/15 02:16:32;;;;;;;0.30;0.28;;;;;;;9.58;96.20;95899.13;4957358;28;20518;-62
2023/01/15 02:19:14;;;;;;;0.17;0.17;;;;;;;9.60;96.51;95902.34;4966071;28;20039;-62
2023/01/15 02:21:51;;;;;;;0.50;0.20;;;;;;;9.62;96.28;95906.38;4979881;28;20047;-62
2023/01/15 02:24:36;;;;;;;0.55;0.20;;;;;;;9.60;96.78;95905.03;4957003;28;20101;-62
2023/01/15 02:27:16;;;;;;;1.25;0.10;;;;;;;9.62;96.53;95897.47;4957597;28;20057;-62
2023/01/15 02:30:12;;;;;;;0.10;0.10;;;;;;;9.71;95.67;95890.38;4949518;28;20082;-62
2023/01/15 02:32:55;;;;;;;0.32;0.20;;;;;;;9.68;96.42;95890.09;4955992;28;20094;-63
2023/01/15 02:35:32;;;;;;;0.30;0.10;;;;;;;9.78;96.18;95897.34;4959857;28;20703;-62
2023/01/15 02:38:06;;;;;;;0.10;0.10;;;;;;;9.70;96.89;95904.16;4956396;28;20051;-62
2023/01/15 02:40:35;;;;;;;0.52;0.10;;;;;;;9.68;97.34;95901.75;4959342;28;20039;-62
2023/01/15 02:43:03;;;;;;;0.20;0.20;;;;;;;9.54;98.54;95903.47;4955813;28;20057;-62
2023/01/15 02:45:33;;;;;;;0.30;0.20;;;;;;;9.62;97.52;95887.44;4957251;28;20035;-62
2023/01/15 02:48:11;;;;;;;0.10;0.10;;;;;;;9.53;98.65;95886.44;4951906;28;20603;-62
2023/01/15 02:50:43;;;;;;;;;;;;;;;9.52;98.81;95887.53;4959269;28;20047;-62
2023/01/15 02:53:26;;;;;;;0.32;0.13;;;;;;;9.58;98.31;95880.22;4956848;28;19922;-62
2023/01/15 02:56:02;;;;;;;0.40;0.20;;;;;;;9.65;97.85;95891.47;4959627;28;20623;-62
2023/01/15 02:58:37;;;;;;;0.30;0.20;;;;;;;9.60;98.54;95883.44;4960894;28;20078;-63
2023/01/15 03:01:13;;;;;;;0.45;0.20;;;;;;;9.56;98.60;95895.88;4954362;28;20047;-62
2023/01/15 03:03:53;;;;;;;0.40;0.20;;;;;;;9.65;97.93;95879.88;4978046;28;19922;-62
2023/01/15 03:06:33;;;;;;;0.60;0.20;;;;;;;9.63;98.04;95877.47;4953665;28;20035;-61
2023/01/15 03:09:01;;;;;;;0.32;0.17;;;;;;;9.61;98.07;95885.84;4957357;28;20085;-63
2023/01/15 03:11:36;;;;;;;0.22;0.10;;;;;;;9.75;97.00;95882.50;4953280;28;20830;-63
2023/01/15 03:14:27;;;;;;;0.25;0.10;;;;;;;9.66;97.68;95865.28;4952764;28;20047;-63
2023/01/15 03:17:04;;;;;;;2.70;0.10;;;;;;;9.76;96.59;95862.47;4969810;28;20053;-62
2023/01/15 03:19:44;;;;;;;0.10;0.10;;;;;;;9.82;96.13;95864.06;4962204;28;20093;-63
2023/01/15 03:22:30;;;;;;;0.20;0.10;;;;;;;9.92;95.11;95865.88;4976192;28;20053;-62
2023/01/15 03:25:06;;;;;;;0.38;0.20;;;;;;;9.97;95.41;95855.00;4961417;28;20049;-63
2023/01/15 03:27:39;;;;;;;0.30;0.13;;;;;;;9.83;96.08;95857.56;4957438;28;20078;-63
2023/01/15 03:30:13;;;;;;;0.08;0.08;;;;;;;9.83;96.03;95846.75;4958625;28;20055;-62
2023/01/15 03:32:40;;;;;;;0.20;0.10;;;;;;;9.79;96.05;95848.41;4976166;28;20112;-62
2023/01/15 03:35:28;;;;;;;0.30;0.10;;;;;;;9.87;95.50;95853.19;4959208;28;20046;-62
2023/01/15 03:37:55;;;;;;;0.17;0.10;;;;;;;9.93;94.89;95848.53;4969300;28;20047;-63
2023/01/15 03:40:23;;;;;;;1.42;0.10;;;;;;;9.92;95.08;95840.72;4958173;28;20062;-62
2023/01/15 03:45:51;;;;;;;0.30;0.10;;;;;;;10.02;94.81;95859.53;4980350;28;20046;-63
2023/01/15 03:48:41;;;;;;;0.15;0.10;;;;;;;10.09;94.52;95851.06;4958198;28;20657;-62
2023/01/15 03:51:12;;;;;;;0.10;0.10;;;;;;;10.11;94.38;95854.31;4955233;28;20470;-61
2023/01/15 03:53:47;;;;;;;0.45;0.20;;;;;;;9.93;95.65;95863.94;4957449;28;20055;-62
2023/01/15 03:56:22;;;;;;;1.13;0.20;;;;;;;10.04;94.94;95859.25;4970762;28;20126;-62
2023/01/15 03:59:08;;;;;;;0.10;0.10;;;;;;;9.96;95.41;95855.28;4976389;28;20521;-62
2023/01/15 04:02:02;;;;;;;0.10;0.10;;;;;;;9.89;95.53;95842.09;4960029;28;20053;-63
2023/01/15 04:04:29;;;;;;;0.28;0.13;;;;;;;9.89;95.60;95839.38;4961854;28;20045;-63
2023/01/15 04:06:59;;;;;;;0.20;0.10;;;;;;;9.95;94.86;95832.81;4961035;28;20066;-63
2023/01/15 04:09:26;;;;;;;0.10;0.10;;;;;;;10.03;94.38;95836.81;4978131;28;21462;-62
2023/01/15 04:12:01;;;;;;;0.10;0.10;;;;;;;9.97;94.52;95843.38;4959483;28;20653;-63
2023/01/15 04:14:32;;;;;;;0.30;0.10;;;;;;;9.97;94.52;95840.66;4956583;28;20053;-63
2023/01/15 04:17:04;;;;;;;0.10;0.10;;;;;;;10.06;93.95;95835.44;4955746;28;20494;-62
2023/01/15 04:19:31;;;;;;;0.13;0.08;;;;;;;9.97;94.55;95832.53;4958406;28;20053;-63
2023/01/15 04:22:01;;;;;;;0.20;0.10;;;;;;;10.10;93.47;95845.38;4960507;28;20050;-62
2023/01/15 04:24:27;;;;;;;0.00;0.00;;;;;;;10.09;93.69;95840.25;4952230;28;20071;-62
2023/01/15 04:26:54;;;;;;;0.03;0.03;;;;;;;10.16;93.54;95829.91;4961860;28;20423;-62
2023/01/15 04:29:20;;;;;;;0.17;0.10;;;;;;;10.01;94.37;95842.53;4960225;28;20097;-63
2023/01/15 04:31:47;;;;;;;0.20;0.20;;;;;;;9.97;94.66;95840.66;4960938;28;20046;-63
2023/01/15 04:34:13;;;;;;;0.40;0.20;;;;;;;9.97;95.08;95825.25;4963517;28;20038;-63
2023/01/15 04:36:41;;;;;;;0.28;0.17;;;;;;;9.98;94.93;95826.03;4961620;28;20555;-63
2023/01/15 04:39:08;;;;;;;0.10;0.00;;;;;;;9.85;95.85;95822.13;4954729;28;20043;-62
2023/01/15 04:44:19;;;;;;;0.15;0.10;;;;;;;9.81;96.58;95832.72;4955177;28;20047;-63
2023/01/15 04:46:47;;;;;;;0.30;0.10;;;;;;;9.79;97.29;95839.47;4961510;28;20039;-63
2023/01/15 04:49:16;;;;;;;0.47;0.15;;;;;;;9.69;97.86;95841.19;4963254;28;20049;-63
2023/01/15 04:51:43;;;;;;;0.52;0.22;;;;;;;9.72;97.73;95842.50;4957922;28;20581;-63
2023/01/15 04:54:12;;;;;;;0.20;0.10;;;;;;;9.89;97.82;95878.03;4960004;28;20043;-62
2023/01/15 04:56:44;;;;;;;4.35;0.47;;;;;;;8.50;100.00;95929.06;4958608;28;21525;-63
2023/01/15 04:59:12;;;;;;;1.02;0.20;;;;;;;7.97;100.00;95915.94;4959439;28;20595;-63
2023/01/15 05:01:39;;;;;;;1.77;0.30;;;;;;;7.41;100.00;95940.69;4958341;28;20051;-62
2023/01/15 05:04:12;;;;;;;0.93;0.20;;;;;;;6.99;100.00;95928.22;4958671;28;20063;-62
2023/01/15 05:06:38;;;;;;;0.32;0.20;;;;;;;6.89;100.00;95948.66;4968396;28;20096;-62
2023/01/15 05:09:05;;;;;;;;;;;;;;;6.44;100.00;95926.66;4955206;28;20093;-61
2023/01/15 05:11:34;;;;;;;;;;;;;;;6.41;100.00;95954.06;4956660;28;19954;-61
2023/01/15 05:14:01;;;;;;;;;;;;;;;6.28;100.00;95933.84;4957715;28;19953;-62
2023/01/15 05:16:28;;;;;;;;;;;;;;;6.15;100.00;95947.72;4960522;28;20021;-62
2023/01/15 05:19:01;;;;;;;;;;;;;;;6.10;100.00;95957.38;4967995;28;20368;-62
2023/01/15 05:21:30;;;;;;;;;;;;;;;5.97;100.00;95961.28;4957445;28;19922;-62
2023/01/15 05:23:59;;;;;;;;;;;;;;;5.90;100.00;95989.44;4959851;28;20286;-62
2023/01/15 05:26:26;;;;;;;;;;;;;;;5.88;100.00;95978.94;4961172;28;19926;-62
2023/01/15 05:28:53;;;;;;;;;;;;;;;5.76;100.00;95995.22;4957382;28;19929;-62
2023/01/15 05:31:20;;;;;;;;;;;;;;;5.72;100.00;96005.66;4961400;28;19922;-62
2023/01/15 05:33:47;;;;;;;;;;;;;;;5.68;100.00;95999.16;4962303;28;19926;-62
2023/01/15 05:36:15;;;;;;;;;;;;;;;5.67;100.00;95999.41;4960360;28;19923;-62
2023/01/15 05:38:41;;;;;;;;;;;;;;;5.63;100.00;95996.44;4965107;28;20536;-63
2023/01/15 05:41:52;;;;;;;;;;;;;;;5.62;100.00;96004.75;4961335;28;19926;-62
2023/01/15 05:44:00;;;;;;;;;;;;;;;5.53;100.00;96004.41;4959684;28;19961;-62
2023/01/15 05:46:27;;;;;;;;;;;;;;;5.49;100.00;96006.78;4961025;28;19930;-63
2023/01/15 05:48:57;;;;;;;;;;;;;;;5.44;100.00;96001.34;4961521;28;19929;-62
2023/01/15 05:51:24;;;;;;;;;;;;;;;5.45;100.00;96025.28;4956813;28;19977;-63
2023/01/15 05:53:50;;;;;;;;;;;;;;;5.43;100.00;96022.03;4966617;28;19952;-63
2023/01/15 05:56:17;;;;;;;;;;;;;;;5.38;100.00;96016.59;4963156;28;19930;-63
2023/01/15 05:58:43;;;;;;;;;;;;;;;5.41;100.00;96012.59;4966671;28;19922;-62
2023/01/15 06:01:10;;;;;;;;;;;;;;;5.33;100.00;96017.38;4964902;28;19929;-62
2023/01/15 06:03:36;;;;;;;;;;;;;;;5.37;100.00;96011.47;4965908;28;19956;-62
2023/01/15 06:06:03;;;;;;;;;;;;;;;5.30;100.00;96008.97;4965252;28;19944;-63
2023/01/15 06:08:29;;;;;;;;;;;;;;;5.19;100.00;96024.16;4962297;28;19957;-63
2023/01/15 06:10:56;;;;;;;;;;;;;;;5.09;100.00;96035.59;4958744;28;19969;-63
2023/01/15 06:13:22;;;;;;;;;;;;;;;5.04;100.00;96025.63;4955226;28;19929;-62
2023/01/15 06:15:49;;;;;;;;;;;;;;;4.95;100.00;96035.94;4966808;28;20013;-63
2023/01/15 06:18:15;;;;;;;;;;;;;;;4.89;100.00;96020.03;4963746;28;19922;-63
2023/01/15 06:20:41;;;;;;;;;;;;;;;4.88;100.00;96031.84;4958321;28;20362;-62
2023/01/15 06:23:08;;;;;;;;;;;;;;;4.85;100.00;96035.84;4963608;28;19930;-63
2023/01/15 06:25:36;;;;;;;;;;;;;;;4.90;100.00;96038.56;4953275;28;19922;-62
2023/01/15 06:28:06;;;;;;;;;;;;;;;4.93;100.00;96035.41;4962517;28;20412;-63
2023/01/15 06:30:33;;;;;;;;;;;;;;;4.83;100.00;96048.66;4962568;28;19930;-62
2023/01/15 06:33:00;;;;;;;;;;;;;;;4.85;100.00;96075.25;4966112;28;19968;-62
2023/01/15 06:35:26;;;;;;;;;;;;;;;4.74;100.00;96080.47;4960307;28;19958;-62
2023/01/15 06:37:53;;;;;;;;;;;;;;;4.75;100.00;96084.78;4964074;28;20017;-62
2023/01/15 06:40:19;;;;;;;;;;;;;;;4.70;100.00;96090.06;4955666;28;20021;-63
2023/01/15 06:48:26;;;;;;;;;;;;;;;4.47;100.00;96109.81;4963061;28;19922;-63
2023/01/15 06:50:53;;;;;;;;;;;;;;;4.43;100.00;96115.66;4957839;28;19922;-63
2023/01/15 06:53:20;;;;;;;;;;;;;;;4.37;100.00;96107.78;4962547;28;19921;-63
2023/01/15 06:55:46;;;;;;;;;;;;;;;4.33;100.00;96115.50;4963326;28;19933;-62
2023/01/15 06:58:13;;;;;;;;;;;;;;;4.30;100.00;96129.38;4958063;28;19969;-62
2023/01/15 07:00:41;;;;;;;;;;;;;;;4.27;100.00;96136.03;4955215;28;20021;-62
2023/01/15 07:03:08;;;;;;;;;;;;;;;4.33;100.00;96139.63;4961218;28;19922;-58
2023/01/15 07:05:36;;;;;;;;;;;;;;;4.27;100.00;96151.28;4962393;28;20002;-62
2023/01/15 07:08:03;;;;;;;;;;;;;;;4.22;100.00;96149.34;4954975;28;19993;-62
2023/01/15 07:10:29;;;;;;;;;;;;;;;4.15;100.00;96148.69;4958128;28;20009;-62
2023/01/15 07:12:56;;;;;;;;;;;;;;;4.12;100.00;96141.13;4961916;28;19922;-62
2023/01/15 07:15:22;;;;;;;;;;;;;;;4.07;100.00;96139.19;4953501;28;19936;-61
2023/01/15 07:17:52;;;;;;;;;;;;;;;4.09;100.00;96145.09;4950046;28;19953;-61
2023/01/15 07:20:20;;;;;;;;;;;;;;;4.01;100.00;96126.75;4958933;28;19922;-60
2023/01/15 07:22:50;;;;;;;;;;;;;;;3.93;100.00;96119.91;4956451;28;19926;-61
2023/01/15 07:25:16;;;;;;;;;;;;;;;3.95;100.00;96136.56;4961813;28;19922;-62
2023/01/15 07:27:45;;;;;;;;;;;;;;;3.96;100.00;96164.16;4962320;28;20009;-62
2023/01/15 07:30:11;;;;;;;;;;;;;;;3.88;100.00;96168.03;4957086;28;19958;-61
2023/01/15 07:32:38;;;;;;;;;;;;;;;3.89;100.00;96150.91;4965654;28;20348;-60
2023/01/15 07:35:04;;;;;;;;;;;;;;;3.87;100.00;96164.53;4964879;28;20090;-59
2023/01/15 07:37:31;;;;;;;;;;;;;;;3.90;100.00;96173.94;4959817;28;19937;-62
2023/01/15 07:39:57;;;;;;;;;;;;;;;3.90;100.00;96155.19;4961778;28;20388;-61
2023/01/15 07:50:40;;;;;;;;;;;;;;;3.99;100.00;96179.75;4953266;28;19969;-60
2023/01/15 07:53:06;;;;;;;;;;;;;;;4.03;100.00;96205.81;4932113;28;19966;-60
2023/01/15 07:55:34;;;;;;;;;;;;;;;4.25;100.00;96215.03;4957994;28;19926;-61
2023/01/15 07:58:01;;;;;;;;;;;;;;;4.27;100.00;96216.44;4956584;28;20016;-61
2023/01/15 08:00:28;;;;;;;;;;;;;;;4.21;100.00;96224.63;4956483;28;20062;-61
2023/01/15 08:02:54;;;;;;;;;;;;;;;4.12;100.00;96214.28;4955687;28;19929;-62
2023/01/15 08:05:20;;;;;;;;;;;;;;;4.06;100.00;96219.78;4920464;28;19930;-62
2023/01/15 08:07:47;;;;;;;;;;;;;;;4.05;100.00;96232.34;4953750;28;19989;-64
2023/01/15 08:10:14;;;;;;;;;;;;;;;4.10;100.00;96237.00;4958976;28;19922;-65
2023/01/15 08:15:25;;;;;;;;;;;;;;;3.97;100.00;96249.63;4916833;28;20021;-66
2023/01/15 08:17:52;;;;;;;;;;;;;;;3.98;100.00;96239.72;4952422;28;20021;-65
2023/01/15 08:20:22;;;;;;;;;;;;;;;3.91;100.00;96231.84;4911131;28;19965;-63
2023/01/15 08:22:48;;;;;;;;;;;;;;;3.85;100.00;96227.41;4934584;28;20019;-62
2023/01/15 08:25:18;;;;;;;0.20;0.20;;;;;;;3.82;100.00;96230.56;4956654;28;19973;-64
2023/01/15 08:27:45;;;;;;;0.47;0.25;;;;;;;3.80;100.00;96235.34;4962440;28;20514;-64
2023/01/15 08:30:14;;;;;;;0.20;0.13;;;;;;;3.78;100.00;96254.31;4957996;28;20046;-62
2023/01/15 08:32:41;;;;;;;0.10;0.10;;;;;;;3.74;100.00;96261.19;4959455;28;20621;-64
2023/01/15 08:35:08;;;;;;;0.20;0.20;;;;;;;3.69;100.00;96285.97;4956108;28;20133;-63
2023/01/15 08:37:35;;;;;;;0.10;0.10;;;;;;;3.71;100.00;96270.50;4957063;28;20098;-64
2023/01/15 08:40:03;;;;;;;0.20;0.20;;;;;;;3.64;100.00;96272.50;4961042;28;20101;-55
2023/01/15 08:42:29;;;;;;;0.20;0.20;;;;;;;3.69;100.00;96269.91;4963319;28;20617;-60
2023/01/15 08:44:56;;;;;;;0.10;0.10;;;;;;;3.63;100.00;96284.25;4959025;28;20061;-59
2023/01/15 08:47:23;;;;;;;1.17;0.20;;;;;;;3.63;100.00;96298.47;4963871;28;20104;-60
2023/01/15 08:49:49;;;;;;;0.35;0.20;;;;;;;3.68;100.00;96288.91;4963799;28;20139;-62
2023/01/15 08:52:16;;;;;;;0.73;0.20;;;;;;;3.56;100.00;96300.44;4965224;28;20043;-62
2023/01/15 08:54:42;;;;;;;0.10;0.10;;;;;;;3.53;100.00;96303.56;4961882;28;20129;-61
2023/01/15 08:57:11;;;;;;;0.10;0.10;;;;;;;3.63;100.00;96305.69;4967501;28;20537;-62
2023/01/15 08:59:37;;;;;;;;;;;;;;;3.54;100.00;96304.41;4965907;28;20050;-63
2023/01/15 09:02:04;;;;;;;0.10;0.10;;;;;;;3.54;100.00;96313.22;4966814;28;19922;-63
2023/01/15 09:04:30;;;;;;;0.35;0.20;;;;;;;3.41;100.00;96316.13;4957264;28;20039;-63
2023/01/15 09:06:57;;;;;;;0.57;0.20;;;;;;;3.44;100.00;96329.88;4965955;28;20061;-64
2023/01/15 09:09:24;;;;;;;0.30;0.20;;;;;;;3.43;100.00;96322.09;4960671;28;20042;-64
2023/01/15 09:11:50;;;;;;;0.50;0.22;;;;;;;3.46;100.00;96330.47;4968962;28;20121;-63
2023/01/15 09:14:16;;;;;;;0.20;0.20;;;;;;;3.40;100.00;96331.41;4965531;28;20165;-63
2023/01/15 09:17:03;;;;;;;0.20;0.20;;;;;;;3.31;100.00;96340.81;4964542;28;20122;-63
2023/01/15 09:19:30;;;;;;;0.20;0.20;;;;;;;3.33;100.00;96344.88;4962339;28;20042;-64
2023/01/15 09:21:57;;;;;;;0.65;0.30;;;;;;;3.46;100.00;96354.53;4958138;28;20664;-63
2023/01/15 09:24:23;;;;;;;0.10;0.10;;;;;;;3.40;100.00;96366.19;4963695;28;20134;-66
2023/01/15 09:26:52;;;;;;;0.45;0.20;;;;;;;3.31;100.00;96378.28;4956697;28;20074;-63
2023/01/15 09:29:18;;;;;;;1.25;0.20;;;;;;;3.36;100.00;96394.44;4960882;28;20133;-64
2023/01/15 09:31:45;;;;;;;0.13;0.13;;;;;;;3.31;100.00;96397.00;4955143;28;20043;-63
2023/01/15 09:34:12;;;;;;;1.02;0.35;;;;;;;3.23;100.00;96382.91;4958385;28;20121;-64
2023/01/15 09:36:38;;;;;;;0.60;0.20;;;;;;;3.28;100.00;96384.06;4959581;28;20059;-63
2023/01/15 09:39:06;;;;;;;0.32;0.20;;;;;;;3.14;100.00;96384.28;4961990;28;20055;-63
2023/01/15 09:42:05;;;;;;;0.30;0.20;;;;;;;3.05;100.00;96383.78;4959653;28;20046;-63
2023/01/15 09:44:50;;;;;;;0.10;0.10;;;;;;;3.02;100.00;96391.44;4963172;28;20124;-63
2023/01/15 09:47:25;;;;;;;0.68;0.20;;;;;;;3.05;100.00;96388.31;4959977;28;20096;-63
2023/01/15 09:50:03;;;;;;;0.20;0.20;;;;;;;3.03;100.00;96393.91;4958556;28;20046;-64
2023/01/15 09:52:52;;;;;;;0.30;0.20;;;;;;;2.94;100.00;96403.25;4962659;28;20043;-63
2023/01/15 09:55:27;;;;;;;2.35;0.25;;;;;;;2.96;100.00;96411.91;4957582;28;20039;-63
2023/01/15 09:57:58;;;;;;;0.10;0.10;;;;;;;2.94;100.00;96419.31;4937153;28;20730;-64
2023/01/15 10:00:28;;;;;;;2.40;0.30;;;;;;;2.95;100.00;96419.09;4955684;28;20043;-63
2023/01/15 10:03:28;;;;;;;2.30;0.20;;;;;;;2.85;100.00;96430.31;4962874;28;20751;-63
2023/01/15 10:06:06;;;;;;;0.20;0.10;;;;;;;2.77;100.00;96433.34;4956422;28;21378;-64
2023/01/15 10:08:38;;;;;;;0.95;0.30;;;;;;;2.68;100.00;96432.81;4956056;28;20042;-63
2023/01/15 10:11:20;;;;;;;0.28;0.20;;;;;;;2.64;100.00;96428.94;4957157;28;20047;-64
2023/01/15 10:14:29;;;;;;;0.20;0.20;;;;;;;2.62;100.00;96431.03;4959625;28;20046;-64
2023/01/15 10:16:56;;;;;;;0.28;0.28;;;;;;;2.60;100.00;96433.09;4937693;28;20237;-64
2023/01/15 10:19:23;;;;;;;0.95;0.30;;;;;;;2.50;100.00;96441.66;4932794;28;20050;-64
2023/01/15 10:22:10;;;;;;;0.20;0.20;;;;;;;2.57;100.00;96446.91;4944739;28;20035;-64
2023/01/15 10:24:38;;;;;;;2.10;0.22;;;;;;;2.39;100.00;96463.78;4961332;28;20042;-63
2023/01/15 10:27:19;;;;;;;3.35;0.73;;;;;;;2.42;100.00;96466.00;4957161;28;20043;-63
2023/01/15 10:29:53;;;;;;;0.57;0.30;;;;;;;2.36;100.00;96480.25;4957158;28;20137;-64
2023/01/15 10:32:32;;;;;;;0.63;0.30;;;;;;;2.27;100.00;96488.53;4956539;28;20058;-64
2023/01/15 10:35:11;;;;;;;0.10;0.10;;;;;;;2.05;100.00;96485.47;4960341;28;20127;-63
2023/01/15 10:37:53;;;;;;;0.20;0.20;;;;;;;2.08;100.00;96474.34;4956418;28;20050;-64
2023/01/15 10:40:44;;;;;;;0.28;0.20;;;;;;;1.90;100.00;96481.28;4954891;28;20043;-63
2023/01/15 10:43:30;;;;;;;0.60;0.30;;;;;;;1.87;100.00;96497.72;4957294;28;20090;-63
2023/01/15 10:46:07;;;;;;;0.80;0.30;;;;;;;1.84;100.00;96492.81;4957469;28;20122;-63
2023/01/15 10:48:39;;;;;;;0.10;0.10;;;;;;;1.66;100.00;96478.38;4959409;28;20433;-63
2023/01/15 10:51:20;;;;;;;0.10;0.10;;;;;;;1.69;100.00;96496.63;4960661;28;20506;-63
2023/01/15 10:53:50;;;;;;;0.20;0.20;;;;;;;1.65;100.00;96534.63;4960823;28;20170;-63
2023/01/15 10:56:37;;;;;;;0.10;0.10;;;;;;;1.77;100.00;96511.56;4960202;28;20509;-63
2023/01/15 10:59:35;;;;;;;0.10;0.10;;;;;;;1.64;100.00;96499.13;4960761;28;20494;-63
2023/01/15 11:02:17;;;;;;;0.17;0.10;;;;;;;1.60;100.00;96491.75;4960352;28;20399;-63
2023/01/15 11:04:43;;;;;;;;;;;;;;;1.47;100.00;96503.34;4959281;28;20074;-63
2023/01/15 11:07:12;;;;;;;0.10;0.10;;;;;;;1.39;100.00;96501.75;4954004;28;19930;-62
2023/01/15 11:09:41;;;;;;;0.70;0.10;;;;;;;1.44;100.00;96504.59;4959365;28;20149;-63
2023/01/15 11:20:33;;;;;;;0.32;0.20;;;;;;;1.23;100.00;96535.06;4956957;28;20122;-64
2023/01/15 11:23:08;;;;;;;0.10;0.10;;;;;;;1.27;100.00;96533.63;4927270;28;20158;-63
2023/01/15 11:25:38;;;;;;;0.45;0.40;;;;;;;1.32;100.00;96525.00;4947163;28;20070;-63
2023/01/15 11:28:07;;;;;;;0.20;0.20;;;;;;;1.40;100.00;96522.88;4957388;28;20106;-66
2023/01/15 11:30:38;;;;;;;0.10;0.10;;;;;;;1.30;100.00;96522.53;4970724;28;20042;-64
2023/01/15 11:33:20;;;;;;;0.30;0.30;;;;;;;1.33;100.00;96527.44;4910568;28;20541;-64
2023/01/15 11:35:56;;;;;;;0.90;0.30;;;;;;;1.34;100.00;96533.59;4953833;28;20039;-66
2023/01/15 11:38:28;;;;;;;0.40;0.20;;;;;;;1.29;100.00;96539.56;4955755;28;20042;-66
2023/01/15 11:41:01;;;;;;;0.95;0.40;;;;;;;1.33;100.00;96543.47;4953815;28;20134;-65
2023/01/15 11:52:08;;;;;;;1.23;0.28;;;;;;;1.40;100.00;96514.88;4953670;28;20479;-65
2023/01/15 11:54:43;;;;;;;0.32;0.20;;;;;;;1.44;100.00;96512.63;4962079;28;20061;-66
2023/01/15 11:57:10;;;;;;;0.20;0.20;;;;;;;1.45;100.00;96508.06;4918606;28;20055;-62
2023/01/15 11:59:37;;;;;;;1.42;0.40;;;;;;;1.55;100.00;96522.56;4949620;28;20049;-63
2023/01/15 12:02:24;;;;;;;1.55;0.30;;;;;;;1.51;100.00;96515.25;4957371;28;20629;-65
2023/01/15 12:04:54;;;;;;;0.22;0.20;;;;;;;1.51;100.00;96521.38;4957815;28;20097;-62
2023/01/15 12:07:23;;;;;;;0.63;0.50;;;;;;;1.56;100.00;96504.72;4945953;28;20050;-65
2023/01/15 12:10:02;;;;;;;2.65;0.40;;;;;;;1.54;100.00;96520.94;4949314;28;20035;-61
2023/01/15 12:12:38;;;;;;;2.37;0.40;;;;;;;1.47;100.00;96514.03;4959855;28;20217;-63
2023/01/15 12:15:17;;;;;;;1.00;0.32;;;;;;;1.49;100.00;96514.63;4951654;28;20315;-62
2023/01/15 12:17:51;;;;;;;0.93;0.50;;;;;;;1.48;100.00;96513.81;4957994;28;20507;-63
2023/01/15 12:20:25;;;;;;;1.23;0.40;;;;;;;1.59;100.00;96506.16;4958172;28;20049;-63
2023/01/15 12:23:13;;;;;;;0.82;0.52;;;;;;;1.73;100.00;96501.53;4955827;28;20502;-62
2023/01/15 12:26:02;;;;;;;2.85;0.40;;;;;;;1.68;100.00;96503.00;4946552;28;20063;-62
2023/01/15 12:28:43;;;;;;;0.63;0.32;;;;;;;1.68;100.00;96505.69;4919216;28;20521;-62
2023/01/15 12:31:12;;;;;;;1.33;0.43;;;;;;;1.64;100.00;96491.13;4900790;28;20122;-62
2023/01/15 12:33:50;;;;;;;0.70;0.25;;;;;;;1.70;100.00;96494.78;4942966;28;20042;-62
2023/01/15 12:36:22;;;;;;;3.47;0.70;;;;;;;1.85;100.00;96486.47;4960164;28;20043;-63
2023/01/15 12:39:00;;;;;;;1.40;0.52;;;;;;;1.85;100.00;96486.47;4956030;28;20043;-63
2023/01/15 12:47:21;;;;;;;3.35;0.40;;;;;;;2.03;100.00;96499.03;4937040;28;20043;-63
2023/01/15 12:50:13;;;;;;;3.65;0.65;;;;;;;2.11;100.00;96507.81;4952246;28;20055;-64
2023/01/15 12:52:44;;;;;;;3.03;0.35;;;;;;;2.24;100.00;96504.22;4914083;28;20055;-65
2023/01/15 12:55:18;;;;;;;1.23;0.38;;;;;;;2.32;100.00;96511.94;4931219;28;20103;-64
2023/01/15 12:57:49;;;;;;;1.38;1.08;;;;;;;2.37;100.00;96522.78;4955584;28;20416;-64
2023/01/15 13:00:23;;;;;;;1.38;0.60;;;;;;;2.34;100.00;96518.69;4954627;28;20117;-63
2023/01/15 13:03:00;;;;;;;3.70;0.90;;;;;;;2.45;100.00;96527.84;4959854;28;20561;-63
2023/01/15 13:05:45;;;;;;;3.17;1.23;;;;;;;2.63;100.00;96530.72;4960439;28;20039;-64